createdAt,value
2022-12-09T00:00:07.557Z,8.73
2022-12-09T00:02:30.191Z,5.10
2022-12-09T00:04:51.891Z,7.63
2022-12-09T00:07:13.375Z,9.83
2022-12-09T00:09:35.027Z,13.27
2022-12-09T00:11:56.638Z,12.30
2022-12-09T00:14:18.430Z,10.93
2022-12-09T00:16:40.352Z,7.70
2022-12-09T00:19:01.858Z,8.73
2022-12-09T00:21:26.279Z,9.67
2022-12-09T00:23:48.615Z,7.37
2022-12-09T00:26:10.933Z,10.67
2022-12-09T00:28:32.898Z,7.77
2022-12-09T00:30:54.666Z,13.50
2022-12-09T00:33:16.449Z,11.07
2022-12-09T00:35:37.874Z,14.43
2022-12-09T00:37:59.543Z,11.93
2022-12-09T00:40:21.223Z,10.93
2022-12-09T00:42:42.738Z,8.87
2022-12-09T00:45:04.705Z,8.93
2022-12-09T00:47:26.246Z,10.77
2022-12-09T00:49:48.200Z,9.83
2022-12-09T00:52:09.684Z,10.93
2022-12-09T00:54:31.417Z,9.70
2022-12-09T00:56:53.102Z,10.47
2022-12-09T00:59:14.737Z,8.57
2022-12-09T01:01:36.431Z,9.10
2022-12-09T01:03:58.437Z,8.37
2022-12-09T01:06:24.429Z,8.60
2022-12-09T01:08:48.808Z,11.67
2022-12-09T01:11:39.698Z,8.17
2022-12-09T01:14:03.090Z,9.77
2022-12-09T01:16:26.736Z,10.23
2022-12-09T01:18:48.712Z,10.20
2022-12-09T01:21:10.266Z,9.53
2022-12-09T01:23:31.980Z,9.97
2022-12-09T01:25:53.436Z,9.50
2022-12-09T01:28:15.149Z,10.97
2022-12-09T01:30:36.687Z,10.93
2022-12-09T01:32:58.262Z,9.60
2022-12-09T01:35:19.904Z,9.03
2022-12-09T01:37:41.516Z,10.70
2022-12-09T01:40:06.677Z,9.30
2022-12-09T01:42:28.415Z,10.80
2022-12-09T01:45:21.542Z,10.17
2022-12-09T01:47:43.144Z,11.33
2022-12-09T01:50:05.821Z,10.80
2022-12-09T01:52:27.566Z,11.80
2022-12-09T01:54:52.233Z,10.83
2022-12-09T01:57:14.605Z,9.60
2022-12-09T01:59:36.742Z,9.63
2022-12-09T02:02:01.151Z,9.07
2022-12-09T02:04:23.093Z,8.30
2022-12-09T02:06:45.079Z,10.57
2022-12-09T02:09:07.393Z,9.07
2022-12-09T02:11:36.524Z,9.73
2022-12-09T02:14:12.962Z,9.67
2022-12-09T02:16:51.310Z,11.17
2022-12-09T02:19:34.945Z,10.73
2022-12-09T02:22:00.217Z,9.90
2022-12-09T02:24:41.936Z,10.57
2022-12-09T02:27:21.831Z,10.17
2022-12-09T02:30:02.175Z,10.80
2022-12-09T02:32:38.383Z,9.63
2022-12-09T02:35:09.648Z,8.47
2022-12-09T02:37:42.618Z,9.87
2022-12-09T02:40:20.176Z,10.50
2022-12-09T02:42:43.709Z,10.17
2022-12-09T02:45:07.712Z,11.70
2022-12-09T02:47:32.854Z,10.30
2022-12-09T02:50:00.756Z,11.23
2022-12-09T02:52:23.190Z,10.97
2022-12-09T02:54:45.288Z,10.40
2022-12-09T02:57:28.189Z,10.27
2022-12-09T02:59:49.677Z,9.67
2022-12-09T03:02:12.303Z,15.80
2022-12-09T03:04:34.112Z,11.63
2022-12-09T03:07:03.973Z,9.10
2022-12-09T03:09:30.156Z,11.77
2022-12-09T03:11:53.112Z,11.30
2022-12-09T03:14:22.995Z,10.57
2022-12-09T03:17:13.842Z,10.60
2022-12-09T03:19:41.008Z,11.60
2022-12-09T03:22:08.058Z,10.97
2022-12-09T03:24:36.606Z,10.53
2022-12-09T03:27:03.651Z,11.07
2022-12-09T03:29:29.246Z,11.03
2022-12-09T03:31:52.771Z,10.97
2022-12-09T03:34:21.407Z,11.73
2022-12-09T03:36:46.501Z,12.40
2022-12-09T03:39:12.413Z,10.83
2022-12-09T03:41:34.825Z,12.30
2022-12-09T03:44:04.576Z,11.50
2022-12-09T03:46:29.255Z,12.23
2022-12-09T03:48:50.896Z,10.40
2022-12-09T03:51:19.177Z,13.73
2022-12-09T03:53:50.402Z,10.63
2022-12-09T03:56:22.356Z,12.30
2022-12-09T03:58:46.536Z,14.10
2022-12-09T04:01:09.649Z,13.23
2022-12-09T04:03:32.905Z,11.23
2022-12-09T04:05:54.729Z,14.03
2022-12-09T04:08:16.737Z,12.47
2022-12-09T04:10:38.249Z,10.80
2022-12-09T04:12:59.733Z,10.80
2022-12-09T04:15:21.455Z,12.17
2022-12-09T04:17:43.222Z,13.67
2022-12-09T04:20:06.300Z,12.33
2022-12-09T04:22:29.570Z,10.67
2022-12-09T04:24:51.284Z,14.07
2022-12-09T04:27:13.253Z,12.23
2022-12-09T04:29:35.035Z,14.30
2022-12-09T04:31:56.611Z,19.07
2022-12-09T04:34:18.206Z,13.37
2022-12-09T04:36:39.785Z,14.10
2022-12-09T04:39:01.271Z,11.80
2022-12-09T04:41:23.425Z,12.10
2022-12-09T04:43:44.975Z,13.17
2022-12-09T04:46:11.212Z,13.17
2022-12-09T04:48:33.062Z,16.60
2022-12-09T04:50:55.093Z,41.63
2022-12-09T04:53:16.879Z,48.20
2022-12-09T04:55:38.393Z,37.33
2022-12-09T04:58:00.094Z,35.70
2022-12-09T05:00:21.758Z,21.37
2022-12-09T05:02:43.711Z,17.97
2022-12-09T05:05:05.833Z,17.50
2022-12-09T05:07:28.998Z,16.93
2022-12-09T05:09:50.883Z,17.33
2022-12-09T05:12:12.628Z,17.57
2022-12-09T05:14:34.480Z,13.70
2022-12-09T05:16:56.223Z,13.40
2022-12-09T05:19:18.067Z,15.10
2022-12-09T05:21:40.029Z,13.70
2022-12-09T05:24:03.110Z,12.40
2022-12-09T05:26:25.082Z,13.33
2022-12-09T05:28:46.867Z,14.60
2022-12-09T05:31:13.229Z,14.47
2022-12-09T05:33:35.327Z,13.00
2022-12-09T05:35:57.407Z,13.43
2022-12-09T05:38:19.034Z,13.83
2022-12-09T05:40:40.876Z,14.17
2022-12-09T05:43:02.369Z,12.20
2022-12-09T05:45:23.984Z,13.50
2022-12-09T05:47:45.640Z,13.30
2022-12-09T05:50:08.899Z,13.10
2022-12-09T05:52:30.758Z,13.30
2022-12-09T05:54:52.610Z,12.83
2022-12-09T05:57:14.419Z,12.73
2022-12-09T05:59:36.075Z,13.70
2022-12-09T06:01:57.975Z,13.23
2022-12-09T06:04:19.586Z,16.00
2022-12-09T06:06:41.568Z,18.77
2022-12-09T06:09:03.732Z,15.23
2022-12-09T06:11:26.084Z,13.20
2022-12-09T06:13:49.863Z,15.57
2022-12-09T06:16:12.893Z,16.73
2022-12-09T06:18:34.887Z,13.87
2022-12-09T06:20:57.281Z,17.23
2022-12-09T06:23:18.919Z,17.57
2022-12-09T06:25:45.301Z,17.87
2022-12-09T06:28:06.919Z,16.93
2022-12-09T06:30:28.549Z,15.40
2022-12-09T06:32:50.465Z,17.83
2022-12-09T06:35:12.397Z,15.80
2022-12-09T06:37:34.360Z,19.80
2022-12-09T06:39:56.038Z,20.03
2022-12-09T06:42:17.946Z,17.80
2022-12-09T06:44:40.254Z,14.27
2022-12-09T06:47:02.499Z,16.23
2022-12-09T06:49:24.244Z,16.17
2022-12-09T06:51:47.869Z,19.27
2022-12-09T06:54:10.373Z,14.87
2022-12-09T06:56:32.695Z,18.60
2022-12-09T06:58:54.762Z,14.80
2022-12-09T07:01:22.702Z,14.50
2022-12-09T07:03:48.003Z,15.40
2022-12-09T07:06:31.854Z,14.47
2022-12-09T07:08:54.852Z,14.20
2022-12-09T07:11:16.735Z,14.17
2022-12-09T07:13:38.736Z,16.37
2022-12-09T07:16:00.557Z,15.37
2022-12-09T07:18:22.413Z,14.43
2022-12-09T07:20:44.605Z,16.23
2022-12-09T07:23:06.480Z,15.50
2022-12-09T07:25:28.018Z,12.97
2022-12-09T07:27:50.067Z,13.13
2022-12-09T07:30:11.742Z,13.97
2022-12-09T07:32:33.236Z,13.10
2022-12-09T07:34:54.816Z,13.47
2022-12-09T07:37:16.411Z,13.70
2022-12-09T07:39:38.242Z,16.23
2022-12-09T07:42:00.246Z,13.07
2022-12-09T07:44:22.872Z,12.10
2022-12-09T07:46:44.827Z,13.33
2022-12-09T07:49:06.569Z,13.80
2022-12-09T07:51:29.614Z,11.57
2022-12-09T07:53:51.721Z,12.67
2022-12-09T07:56:15.811Z,14.47
2022-12-09T07:58:38.366Z,15.37
2022-12-09T08:01:14.742Z,16.10
2022-12-09T08:03:36.869Z,16.83
2022-12-09T08:05:58.658Z,20.53
2022-12-09T08:08:20.517Z,18.63
2022-12-09T08:10:44.680Z,21.90
2022-12-09T08:13:06.735Z,17.97
2022-12-09T08:15:28.603Z,13.97
2022-12-09T08:17:50.246Z,23.53
2022-12-09T08:20:13.221Z,14.90
2022-12-09T08:22:35.648Z,14.03
2022-12-09T08:24:57.407Z,13.53
2022-12-09T08:27:19.252Z,15.37
2022-12-09T08:29:41.494Z,13.33
2022-12-09T08:32:03.795Z,15.07
2022-12-09T08:34:25.607Z,19.10
2022-12-09T08:36:47.196Z,18.87
2022-12-09T08:39:09.281Z,16.10
2022-12-09T08:41:37.754Z,20.83
2022-12-09T08:43:59.991Z,25.53
2022-12-09T08:46:21.881Z,38.87
2022-12-09T08:48:43.763Z,33.63
2022-12-09T08:51:07.357Z,48.67
2022-12-09T08:53:29.021Z,46.90
2022-12-09T08:55:50.928Z,40.17
2022-12-09T08:58:12.812Z,32.33
2022-12-09T09:00:34.447Z,28.50
2022-12-09T09:02:56.440Z,32.70
2022-12-09T09:05:18.737Z,28.73
2022-12-09T09:07:40.965Z,26.40
2022-12-09T09:10:04.430Z,28.00
2022-12-09T09:12:26.192Z,24.30
2022-12-09T09:14:47.724Z,24.73
2022-12-09T09:17:09.323Z,24.43
2022-12-09T09:19:31.783Z,21.77
2022-12-09T09:21:55.372Z,23.97
2022-12-09T09:24:19.905Z,27.37
2022-12-09T09:26:42.779Z,21.43
2022-12-09T09:29:04.776Z,24.97
2022-12-09T09:31:26.791Z,29.00
2022-12-09T09:33:49.120Z,28.53
2022-12-09T09:36:14.959Z,25.93
2022-12-09T09:38:36.782Z,24.97
2022-12-09T09:41:00.800Z,23.50
2022-12-09T09:43:29.094Z,27.00
2022-12-09T09:45:53.628Z,24.90
2022-12-09T09:48:20.022Z,21.67
2022-12-09T09:50:53.727Z,19.73
2022-12-09T09:53:33.491Z,23.57
2022-12-09T09:56:00.113Z,20.17
2022-12-09T09:58:43.528Z,18.87
2022-12-09T10:01:08.774Z,18.03
2022-12-09T10:03:49.347Z,18.97
2022-12-09T10:06:55.167Z,17.10
2022-12-09T10:09:22.844Z,19.57
2022-12-09T10:12:18.891Z,15.47
2022-12-09T10:14:43.809Z,17.30
2022-12-09T10:17:35.250Z,18.27
2022-12-09T10:20:21.226Z,22.77
2022-12-09T10:22:50.605Z,19.70
2022-12-09T10:25:18.024Z,16.77
2022-12-09T10:27:47.912Z,15.73
2022-12-09T10:30:17.988Z,17.07
2022-12-09T10:32:40.674Z,18.97
2022-12-09T10:35:14.289Z,15.33
2022-12-09T10:37:36.824Z,15.17
2022-12-09T10:40:07.900Z,15.97
2022-12-09T10:42:53.619Z,22.37
2022-12-09T10:45:15.135Z,22.87
2022-12-09T10:47:37.973Z,26.50
2022-12-09T10:49:59.802Z,31.53
2022-12-09T10:52:44.808Z,25.73
2022-12-09T10:55:07.383Z,24.57
2022-12-09T10:57:30.523Z,19.80
2022-12-09T11:00:19.951Z,16.33
2022-12-09T11:02:50.688Z,16.00
2022-12-09T11:05:27.910Z,14.70
2022-12-09T11:07:52.304Z,13.77
2022-12-09T11:10:20.703Z,15.70
2022-12-09T11:12:44.122Z,13.20
2022-12-09T11:15:23.963Z,13.70
2022-12-09T11:17:56.894Z,13.73
2022-12-09T11:20:24.425Z,13.30
2022-12-09T11:22:58.050Z,13.27
2022-12-09T11:25:29.593Z,14.47
2022-12-09T11:27:55.377Z,13.50
2022-12-09T11:30:18.897Z,16.27
2022-12-09T11:33:12.301Z,22.20
2022-12-09T11:35:43.011Z,18.80
2022-12-09T11:38:27.318Z,15.57
2022-12-09T11:41:00.363Z,16.47
2022-12-09T11:43:31.015Z,18.30
2022-12-09T11:45:52.476Z,16.20
2022-12-09T11:48:37.312Z,16.33
2022-12-09T11:51:01.952Z,16.67
2022-12-09T11:53:32.337Z,17.73
2022-12-09T11:56:07.068Z,17.57
2022-12-09T11:58:53.601Z,16.63
2022-12-09T12:01:30.223Z,17.73
2022-12-09T12:04:07.226Z,15.60
2022-12-09T12:06:47.041Z,17.63
2022-12-09T12:09:39.311Z,20.13
2022-12-09T12:12:09.627Z,18.43
2022-12-09T12:14:31.536Z,18.27
2022-12-09T12:17:08.605Z,17.27
2022-12-09T12:19:35.735Z,18.60
2022-12-09T12:22:22.171Z,17.80
2022-12-09T12:25:18.316Z,17.80
2022-12-09T12:28:01.506Z,16.53
2022-12-09T12:30:40.150Z,18.33
2022-12-09T12:34:00.374Z,17.40
2022-12-09T12:36:07.934Z,18.90
2022-12-09T12:39:08.790Z,26.67
2022-12-09T12:41:39.093Z,20.80
2022-12-09T12:44:34.592Z,23.50
2022-12-09T12:47:08.130Z,18.83
2022-12-09T12:49:54.088Z,18.60
2022-12-09T12:52:54.924Z,21.00
2022-12-09T12:55:21.415Z,28.67
2022-12-09T12:57:55.233Z,26.80
2022-12-09T13:00:21.484Z,20.23
2022-12-09T13:03:09.260Z,18.83
2022-12-09T13:05:37.554Z,16.87
2022-12-09T13:08:05.671Z,16.73
2022-12-09T13:10:36.499Z,17.00
2022-12-09T13:13:01.666Z,15.33
2022-12-09T13:15:43.363Z,17.57
2022-12-09T13:18:15.529Z,19.00
2022-12-09T13:20:46.076Z,15.93
2022-12-09T13:23:46.181Z,15.57
2022-12-09T13:26:23.522Z,14.30
2022-12-09T13:28:54.135Z,16.27
2022-12-09T13:31:20.071Z,16.20
2022-12-09T13:33:50.735Z,16.07
2022-12-09T13:36:36.226Z,12.57
2022-12-09T13:38:58.212Z,13.57
2022-12-09T13:41:51.780Z,11.27
2022-12-09T13:44:18.839Z,8.03
2022-12-09T13:46:42.871Z,8.17
2022-12-09T13:49:17.961Z,8.60
2022-12-09T13:51:49.090Z,7.50
2022-12-09T13:54:16.237Z,6.97
2022-12-09T13:56:37.807Z,6.67
2022-12-09T13:59:18.185Z,6.87
2022-12-09T14:01:42.437Z,16.07
2022-12-09T14:04:22.557Z,10.77
2022-12-09T14:06:46.746Z,9.27
2022-12-09T14:09:20.580Z,14.27
2022-12-09T14:12:04.825Z,15.07
2022-12-09T14:14:26.230Z,12.57
2022-12-09T14:16:47.822Z,11.47
2022-12-09T14:19:24.589Z,7.40
2022-12-09T14:22:18.633Z,9.23
2022-12-09T14:24:40.808Z,12.23
2022-12-09T14:27:05.230Z,10.30
2022-12-09T14:29:43.943Z,10.17
2022-12-09T14:32:17.843Z,10.73
2022-12-09T14:34:43.048Z,13.80
2022-12-09T14:37:30.517Z,15.10
2022-12-09T14:40:00.016Z,9.47
2022-12-09T14:42:31.434Z,8.07
2022-12-09T14:45:11.460Z,8.17
2022-12-09T14:47:39.524Z,9.33
2022-12-09T14:50:12.478Z,10.30
2022-12-09T14:52:34.462Z,8.70
2022-12-09T14:55:02.110Z,7.90
2022-12-09T14:57:30.690Z,12.43
2022-12-09T14:59:55.621Z,11.07
2022-12-09T15:02:24.787Z,12.13
2022-12-09T15:04:48.299Z,18.60
2022-12-09T15:07:11.174Z,13.80
2022-12-09T15:09:32.638Z,10.03
2022-12-09T15:11:54.139Z,10.20
2022-12-09T15:14:27.686Z,14.07
2022-12-09T15:16:50.888Z,10.47
2022-12-09T15:19:37.017Z,9.23
2022-12-09T15:22:00.842Z,11.23
2022-12-09T15:24:22.520Z,9.87
2022-12-09T15:27:04.270Z,9.70
2022-12-09T15:29:31.145Z,11.10
2022-12-09T15:31:53.691Z,13.70
2022-12-09T15:34:23.200Z,12.90
2022-12-09T15:36:56.202Z,16.67
2022-12-09T15:39:32.404Z,12.47
2022-12-09T15:42:08.102Z,17.13
2022-12-09T15:44:38.714Z,19.77
2022-12-09T15:47:08.452Z,15.03
2022-12-09T15:49:38.607Z,15.67
2022-12-09T15:52:02.684Z,13.57
2022-12-09T15:54:30.440Z,13.83
2022-12-09T15:56:57.490Z,17.10
2022-12-09T15:59:22.262Z,13.80
2022-12-09T16:01:56.374Z,14.93
2022-12-09T16:04:26.071Z,12.13
2022-12-09T16:06:48.911Z,11.20
2022-12-09T16:09:20.645Z,11.73
2022-12-09T16:11:48.464Z,12.23
2022-12-09T16:14:11.375Z,13.40
2022-12-09T16:16:43.120Z,17.57
2022-12-09T16:19:04.657Z,30.37
2022-12-09T16:21:35.101Z,35.93
2022-12-09T16:24:06.956Z,29.13
2022-12-09T16:26:35.319Z,20.30
2022-12-09T16:28:59.695Z,17.43
2022-12-09T16:31:22.428Z,17.37
2022-12-09T16:33:48.579Z,18.40
2022-12-09T16:36:19.387Z,13.93
2022-12-09T16:38:41.514Z,17.67
2022-12-09T16:41:12.413Z,17.30
2022-12-09T16:43:35.160Z,15.50
2022-12-09T16:46:34.317Z,13.60
2022-12-09T16:48:59.285Z,12.57
2022-12-09T16:51:25.232Z,13.17
2022-12-09T16:53:49.995Z,11.57
2022-12-09T16:56:27.293Z,12.30
2022-12-09T16:58:49.060Z,13.37
2022-12-09T17:01:17.044Z,15.50
2022-12-09T17:03:42.920Z,13.57
2022-12-09T17:06:05.377Z,13.90
2022-12-09T17:08:27.059Z,15.30
2022-12-09T17:10:48.702Z,13.90
2022-12-09T17:13:12.416Z,14.47
2022-12-09T17:15:34.026Z,14.73
2022-12-09T17:17:55.513Z,13.10
2022-12-09T17:20:17.195Z,13.43
2022-12-09T17:22:38.836Z,14.37
2022-12-09T17:25:00.322Z,14.23
2022-12-09T17:27:21.805Z,14.50
2022-12-09T17:29:46.138Z,19.53
2022-12-09T17:32:07.666Z,25.83
2022-12-09T17:34:29.211Z,28.37
2022-12-09T17:36:50.694Z,28.63
2022-12-09T17:39:15.631Z,22.33
2022-12-09T17:41:37.130Z,21.67
2022-12-09T17:44:00.691Z,18.20
2022-12-09T17:46:22.182Z,12.87
2022-12-09T17:48:43.765Z,14.53
2022-12-09T17:51:10.723Z,13.83
2022-12-09T17:53:32.187Z,14.40
2022-12-09T17:55:53.620Z,14.87
2022-12-09T17:58:15.192Z,12.57
2022-12-09T18:00:38.883Z,14.30
2022-12-09T18:03:00.684Z,14.23
2022-12-09T18:05:22.187Z,12.33
2022-12-09T18:07:44.210Z,16.00
2022-12-09T18:10:06.719Z,15.90
2022-12-09T18:12:28.264Z,16.63
2022-12-09T18:14:49.798Z,21.03
2022-12-09T18:17:11.369Z,26.97
2022-12-09T18:19:35.174Z,26.83
2022-12-09T18:21:57.407Z,27.43
2022-12-09T18:24:18.893Z,27.70
2022-12-09T18:26:42.168Z,24.97
2022-12-09T18:29:05.020Z,23.97
2022-12-09T18:31:26.686Z,23.60
2022-12-09T18:33:48.278Z,21.30
2022-12-09T18:36:13.190Z,19.60
2022-12-09T18:38:34.643Z,20.00
2022-12-09T18:41:01.873Z,21.73
2022-12-09T18:43:23.339Z,21.83
2022-12-09T18:45:44.822Z,26.97
2022-12-09T18:48:06.303Z,30.40
2022-12-09T18:50:27.741Z,42.07
2022-12-09T18:52:49.195Z,32.83
2022-12-09T18:55:10.763Z,36.50
2022-12-09T18:57:33.036Z,27.10
2022-12-09T18:59:54.501Z,29.87
2022-12-09T19:02:17.101Z,28.13
2022-12-09T19:04:38.667Z,26.20
2022-12-09T19:07:01.312Z,29.63
2022-12-09T19:09:33.347Z,38.40
2022-12-09T19:11:54.834Z,22.43
2022-12-09T19:14:18.104Z,23.57
2022-12-09T19:16:39.997Z,23.40
2022-12-09T19:19:08.716Z,25.20
2022-12-09T19:21:31.316Z,20.60
2022-12-09T19:23:54.689Z,18.57
2022-12-09T19:26:19.177Z,20.57
2022-12-09T19:28:46.503Z,20.97
2022-12-09T19:31:22.831Z,22.43
2022-12-09T19:33:44.434Z,24.17
2022-12-09T19:36:06.403Z,27.70
2022-12-09T19:38:27.864Z,24.60
2022-12-09T19:40:49.281Z,30.20
2022-12-09T19:43:11.181Z,26.67
2022-12-09T19:45:33.457Z,25.67
2022-12-09T19:47:54.921Z,23.77
2022-12-09T19:50:16.581Z,24.67
2022-12-09T19:52:38.044Z,25.63
2022-12-09T19:55:00.014Z,24.83
2022-12-09T19:57:22.430Z,24.90
2022-12-09T19:59:43.956Z,23.53
2022-12-09T20:02:07.175Z,28.80
2022-12-09T20:07:12.188Z,34.53
2022-12-09T20:09:33.660Z,33.50
2022-12-09T20:11:55.165Z,29.93
2022-12-09T20:14:16.664Z,27.30
2022-12-09T20:16:38.457Z,29.33
2022-12-09T20:19:01.642Z,28.13
2022-12-09T20:21:25.008Z,27.83
2022-12-09T20:23:47.419Z,26.00
2022-12-09T20:26:11.865Z,25.40
2022-12-09T20:28:34.179Z,26.10
2022-12-09T20:30:55.619Z,25.90
2022-12-09T20:33:17.071Z,28.63
2022-12-09T20:35:38.582Z,29.30
2022-12-09T20:38:00.052Z,27.83
2022-12-09T20:40:21.491Z,27.87
2022-12-09T20:42:42.930Z,29.07
2022-12-09T20:45:05.621Z,25.73
2022-12-09T20:47:27.144Z,27.40
2022-12-09T20:49:48.595Z,27.37
2022-12-09T20:52:10.116Z,28.63
2022-12-09T20:54:31.632Z,27.47
2022-12-09T20:56:53.715Z,27.83
2022-12-09T20:59:15.165Z,27.30
2022-12-09T21:01:37.364Z,32.10
2022-12-09T21:04:00.654Z,30.63
2022-12-09T21:06:25.243Z,28.27
2022-12-09T21:08:47.380Z,34.47
2022-12-09T21:11:15.161Z,31.00
2022-12-09T21:13:45.038Z,34.80
2022-12-09T21:16:09.321Z,28.53
2022-12-09T21:18:30.901Z,29.23
2022-12-09T21:20:55.775Z,27.23
2022-12-09T21:23:34.202Z,31.07
2022-12-09T21:25:56.203Z,28.80
2022-12-09T21:28:17.728Z,28.63
2022-12-09T21:30:39.141Z,30.10
2022-12-09T21:33:00.675Z,31.50
2022-12-09T21:35:22.097Z,27.57
2022-12-09T21:37:43.514Z,31.50
2022-12-09T21:40:05.709Z,30.33
2022-12-09T21:42:27.446Z,30.63
2022-12-09T21:44:48.916Z,29.70
2022-12-09T21:47:10.333Z,27.90
2022-12-09T21:49:33.430Z,33.57
2022-12-09T21:51:54.884Z,29.73
2022-12-09T21:54:16.425Z,29.57
2022-12-09T21:56:38.007Z,27.73
2022-12-09T21:59:00.399Z,31.67
2022-12-09T22:01:24.361Z,30.27
2022-12-09T22:03:47.067Z,37.33
2022-12-09T22:06:10.390Z,31.50
2022-12-09T22:08:31.967Z,31.57
2022-12-09T22:10:53.740Z,28.93
2022-12-09T22:13:15.229Z,29.70
2022-12-09T22:15:36.766Z,32.03
2022-12-09T22:17:58.335Z,30.80
2022-12-09T22:20:54.608Z,30.43
2022-12-09T22:23:01.705Z,27.93
2022-12-09T22:25:23.165Z,28.00
2022-12-09T22:27:44.742Z,28.23
2022-12-09T22:30:07.037Z,28.30
2022-12-09T22:32:30.498Z,28.07
2022-12-09T22:34:53.821Z,29.10
2022-12-09T22:37:42.475Z,28.33
2022-12-09T22:39:59.412Z,27.47
2022-12-09T22:42:20.854Z,29.83
2022-12-09T22:44:42.324Z,26.93
2022-12-09T22:47:04.072Z,28.43
2022-12-09T22:49:25.537Z,27.53
2022-12-09T22:51:47.774Z,30.10
2022-12-09T22:54:10.191Z,30.63
2022-12-09T22:56:32.342Z,27.20
2022-12-09T22:58:54.337Z,29.00
2022-12-09T23:01:25.720Z,28.03
2022-12-09T23:03:47.475Z,27.23
2022-12-09T23:06:09.913Z,26.20
2022-12-09T23:08:31.461Z,27.30
2022-12-09T23:10:52.918Z,28.87
2022-12-09T23:13:14.367Z,25.30
2022-12-09T23:15:35.967Z,27.83
2022-12-09T23:17:57.471Z,30.13
2022-12-09T23:20:18.924Z,31.60
2022-12-09T23:22:40.363Z,28.07
2022-12-09T23:25:01.811Z,29.97
2022-12-09T23:27:23.248Z,26.83
2022-12-09T23:29:45.765Z,31.27
2022-12-09T23:32:07.201Z,29.67
2022-12-09T23:34:28.678Z,29.97
2022-12-09T23:36:50.165Z,27.40
2022-12-09T23:39:15.031Z,30.77
2022-12-09T23:41:40.864Z,26.93
2022-12-09T23:44:02.529Z,24.60
2022-12-09T23:46:27.168Z,29.20
2022-12-09T23:48:50.240Z,34.80
2022-12-09T23:51:23.903Z,31.53
2022-12-09T23:53:47.420Z,32.70
2022-12-09T23:56:14.514Z,29.00
2022-12-09T23:58:35.970Z,29.47
